Notre-Dame-du-Portage, Canada
Current Conditions -  °F | °C
As of 5:53 PM on Thursday 27 Nov 2014 (Local Time) from KFVE Reporting Station
Clear Clear  
Wind Chill:   Ceiling: Unl
Heat Index: 16°   Visibility: 10mi
Dew Point: 10°   Wind: 8mph
Humidity: 77%   Direction: 340°NNW
Pressure: 29.94"   Gusts: NA
Location:  47.76°N, 69.61°W
Report Text: KFVE 272253Z AUTO 34007KT 10SM CLR M09/M12 A2994 RMK AO2 SLP155 T10891122
Loading
Personal Weather Stations






























Interactive Weather Map New forecast layout! Learn more

10-Day Weather Forecast

Advertisements
Track Severe Weather on mobile